Stella Prima — PHEA — position and weather

sailwx.info

Track history (hours):
 
Tides and Currents Weather Stations Pressure Air Temp Water Temp Dewpoint Dewpoint Depression Visibility Wind Speed Wind Dir Waves Ship Positions

Stella Prima

Last reported at 2016-Feb-05 01:15 UTC. Time now 2016-Feb-07 17:26 UTC.
Position N 44°27' E 012°15'.

Length 100 m; beam 21 m.

Type: Cargo ship. MMSI: 246460000.

Date/timePositionNaut miles runAvg speedWind from/ knotsBaromVisibWave heightAir tempDewpointWater temp
2016-Feb-05 01:15N 44°27' E 012°15'0 0.0
2016-Feb-05 00:10N 44°27' E 012°15'0 0.0
2016-Feb-04 23:33N 44°27' E 012°15'0 0.0
2016-Feb-04 22:30N 44°27' E 012°15'  
2016-Feb-01 06:33N 38°05' E 015°35'1312.6
2016-Feb-01 05:30N 38°17' E 015°41'1313.1
2016-Feb-01 04:32N 38°20' E 015°25'1413.2
2016-Feb-01 03:30N 38°20' E 015°07'5413.4
2016-Jan-31 23:30N 38°22' E 013°59'1313.6
2016-Jan-31 22:33N 38°24' E 013°43'1413.5
2016-Jan-31 21:33N 38°25' E 013°26'1313.1
2016-Jan-31 20:33N 38°22' E 013°09'1313.0
2016-Jan-31 19:33N 38°19' E 012°53'1312.8
2016-Jan-31 18:30N 38°16' E 012°36'1313.3
2016-Jan-31 17:33N 38°14' E 012°21'  
2016-Jan-29 11:22N 36°21' W 002°19'1214.0
2016-Jan-29 10:29N 36°20' W 002°34'12813.7
2016-Jan-29 01:07N 36°00' W 005°10'813.9
2016-Jan-29 00:33N 35°59' W 005°20'  
Track history (hours):
 
Tides and Currents Weather Stations Pressure Air Temp Water Temp Dewpoint Dewpoint Depression Visibility Wind Speed Wind Dir Waves Ship Positions

Stella Prima

Last reported at 2016-Feb-05 01:15 UTC. Time now 2016-Feb-07 17:26 UTC.
Position N 44°27' E 012°15'.

Length 100 m; beam 21 m.

Type: Cargo ship. MMSI: 246460000.

Date/timePositionNaut miles runAvg speedWind from/ knotsBaromVisibWave heightAir tempDewpointWater temp
2016-Feb-05 01:15N 44°27' E 012°15'0 0.0
2016-Feb-05 00:10N 44°27' E 012°15'0 0.0
2016-Feb-04 23:33N 44°27' E 012°15'0 0.0
2016-Feb-04 22:30N 44°27' E 012°15'  
2016-Feb-01 06:33N 38°05' E 015°35'1312.6
2016-Feb-01 05:30N 38°17' E 015°41'1313.1
2016-Feb-01 04:32N 38°20' E 015°25'1413.2
2016-Feb-01 03:30N 38°20' E 015°07'5413.4
2016-Jan-31 23:30N 38°22' E 013°59'1313.6
2016-Jan-31 22:33N 38°24' E 013°43'1413.5
2016-Jan-31 21:33N 38°25' E 013°26'1313.1
2016-Jan-31 20:33N 38°22' E 013°09'1313.0
2016-Jan-31 19:33N 38°19' E 012°53'1312.8
2016-Jan-31 18:30N 38°16' E 012°36'1313.3
2016-Jan-31 17:33N 38°14' E 012°21'  
2016-Jan-29 11:22N 36°21' W 002°19'1214.0
2016-Jan-29 10:29N 36°20' W 002°34'12813.7
2016-Jan-29 01:07N 36°00' W 005°10'813.9
2016-Jan-29 00:33N 35°59' W 005°20'  

Dump ship's entire track history